Time;durP1;ratioP1;P1;durP2;ratioP2;P2;SDS_P1;SDS_P2;PMS_P1;PMS_P2;Temp;Humidity;BMP_temperature;BMP_pressure;BME280_temperature;BME280_humidity;BME280_pressure;Samples;Min_cycle;Max_cycle;Signal;HPM_P1;HPM_P2
2022/06/29 06:25:36;;;;;;;13.50;11.87;;;17.40;99.90;;;;;;5119991;27;20944;-83
2022/06/29 06:28:02;;;;;;;16.40;11.27;;;17.50;99.90;;;;;;5117938;28;20183;-85
2022/06/29 06:30:28;;;;;;;16.93;11.40;;;17.60;99.90;;;;;;5118600;28;20196;-83
2022/06/29 06:32:55;;;;;;;13.73;11.67;;;17.60;99.90;;;;;;5120746;28;20541;-84
2022/06/29 06:35:20;;;;;;;12.30;11.10;;;17.60;99.90;;;;;;5125573;28;20176;-83
2022/06/29 06:37:47;;;;;;;11.90;10.70;;;17.60;99.90;;;;;;5126851;28;20188;-84
2022/06/29 06:42:58;;;;;;;11.33;10.07;;;17.70;99.90;;;;;;5119957;28;20255;-84
2022/06/29 06:45:24;;;;;;;11.07;9.33;;;17.70;99.90;;;;;;5118469;28;20211;-84
2022/06/29 06:47:52;;;;;;;12.63;9.93;;;17.60;99.90;;;;;;5121688;28;20627;-84
2022/06/29 06:50:17;;;;;;;11.83;9.53;;;17.60;99.90;;;;;;5115456;28;20201;-84
2022/06/29 06:52:43;;;;;;;10.43;9.43;;;17.60;99.90;;;;;;5115377;28;20701;-84
2022/06/29 06:55:09;;;;;;;11.87;9.27;;;17.60;99.90;;;;;;5115834;28;20183;-84
2022/06/29 06:57:35;;;;;;;10.53;8.47;;;17.60;99.90;;;;;;5115763;28;20182;-85
2022/06/29 07:00:02;;;;;;;11.67;9.43;;;17.60;99.90;;;;;;5115653;28;20525;-84
2022/06/29 07:02:28;;;;;;;10.47;8.50;;;17.60;99.90;;;;;;5117217;28;20209;-84
2022/06/29 07:04:53;;;;;;;10.33;8.70;;;17.60;99.90;;;;;;5117710;28;20201;-84
2022/06/29 07:07:19;;;;;;;11.63;8.73;;;17.60;99.90;;;;;;5116713;28;20181;-84
2022/06/29 07:09:45;;;;;;;10.40;8.80;;;17.60;99.90;;;;;;5116754;28;20167;-84
2022/06/29 07:12:10;;;;;;;9.33;8.33;;;17.60;99.90;;;;;;5114727;28;20223;-84
2022/06/29 07:14:36;;;;;;;12.13;8.83;;;17.60;99.90;;;;;;5116343;28;20184;-84
2022/06/29 07:17:02;;;;;;;11.63;9.60;;;;;;;;;;5116235;28;20179;-84
2022/06/29 07:19:28;;;;;;;9.83;8.90;;;17.70;99.90;;;;;;5115737;28;20182;-84
2022/06/29 07:21:54;;;;;;;12.40;9.13;;;17.70;99.90;;;;;;5115960;28;20275;-84
2022/06/29 07:24:20;;;;;;;10.83;9.40;;;17.70;99.90;;;;;;5115111;28;20238;-84
2022/06/29 07:26:46;;;;;;;10.03;8.90;;;17.80;99.90;;;;;;5115030;28;20181;-84
2022/06/29 07:29:11;;;;;;;10.30;9.03;;;17.80;99.90;;;;;;5115952;28;20253;-83
2022/06/29 07:31:37;;;;;;;12.63;8.77;;;17.90;99.90;;;;;;5114954;28;20203;-84
2022/06/29 07:34:06;;;;;;;9.77;8.40;;;17.90;99.90;;;;;;5116690;28;20177;-84
2022/06/29 07:36:31;;;;;;;9.63;8.73;;;18.00;99.90;;;;;;5103252;28;20170;-84
2022/06/29 07:38:57;;;;;;;10.13;8.97;;;18.00;99.90;;;;;;5102685;28;20323;-84
2022/06/29 07:41:23;;;;;;;11.50;9.30;;;18.00;99.90;;;;;;5100263;28;20213;-84
2022/06/29 07:43:49;;;;;;;10.10;8.53;;;;;;;;;;5099449;28;20285;-84
2022/06/29 07:46:16;;;;;;;10.00;9.00;;;18.00;99.90;;;;;;5099773;28;20178;-83
2022/06/29 07:48:42;;;;;;;11.63;9.33;;;18.00;99.90;;;;;;5099271;28;20227;-83
2022/06/29 07:51:08;;;;;;;9.97;8.97;;;18.00;99.90;;;;;;5099130;28;20210;-84
2022/06/29 07:53:34;;;;;;;10.73;9.63;;;18.00;99.90;;;;;;5100442;28;20184;-84
2022/06/29 07:55:59;;;;;;;9.80;8.90;;;18.00;99.90;;;;;;5099039;28;20176;-84
2022/06/29 07:58:25;;;;;;;11.83;9.57;;;18.00;99.90;;;;;;5098077;28;20263;-83
2022/06/29 08:00:52;;;;;;;12.20;9.60;;;18.10;99.90;;;;;;5098864;28;20196;-84
2022/06/29 08:03:18;;;;;;;12.07;8.90;;;18.10;99.90;;;;;;5097712;28;20635;-83
2022/06/29 08:05:45;;;;;;;9.93;8.87;;;18.10;99.90;;;;;;5096242;28;20183;-83
2022/06/29 08:08:11;;;;;;;9.30;8.37;;;18.20;99.90;;;;;;5099583;28;20212;-84
2022/06/29 08:10:36;;;;;;;10.03;9.03;;;18.40;99.90;;;;;;5101944;28;20196;-84
2022/06/29 08:13:02;;;;;;;12.60;9.03;;;18.40;99.90;;;;;;5115765;28;20179;-85
2022/06/29 08:15:29;;;;;;;10.53;8.87;;;18.50;99.90;;;;;;5121453;28;20178;-84
2022/06/29 08:17:55;;;;;;;9.60;8.23;;;18.50;99.90;;;;;;5104147;28;20177;-84
2022/06/29 08:20:21;;;;;;;8.60;7.80;;;18.70;99.90;;;;;;5100590;28;20250;-84
2022/06/29 08:22:47;;;;;;;10.07;7.73;;;18.70;99.90;;;;;;5100048;28;20185;-84
2022/06/29 08:25:13;;;;;;;8.93;8.10;;;18.80;99.90;;;;;;5100168;28;20213;-84
2022/06/29 08:27:40;;;;;;;10.07;8.43;;;18.90;99.90;;;;;;5100124;28;20176;-84
2022/06/29 08:30:07;;;;;;;9.30;8.37;;;19.10;99.90;;;;;;5100014;28;20611;-84
2022/06/29 08:32:32;;;;;;;9.60;8.60;;;19.10;99.90;;;;;;5100856;28;20215;-84
2022/06/29 08:34:59;;;;;;;12.60;8.43;;;19.10;99.90;;;;;;5101571;28;20184;-84
2022/06/29 08:37:26;;;;;;;8.47;7.00;;;19.20;99.90;;;;;;5100024;28;20180;-84
2022/06/29 08:39:52;;;;;;;9.00;7.50;;;19.40;99.90;;;;;;5101695;28;20180;-85
2022/06/29 08:42:22;;;;;;;7.93;6.80;;;19.40;99.90;;;;;;5100827;28;20177;-84
2022/06/29 08:44:49;;;;;;;11.33;8.00;;;19.50;99.90;;;;;;5104157;28;20601;-84
2022/06/29 08:47:15;;;;;;;11.17;7.00;;;19.50;99.90;;;;;;5098485;28;20237;-84
2022/06/29 08:49:44;;;;;;;11.63;8.50;;;19.50;99.90;;;;;;5100003;28;20183;-84
2022/06/29 08:52:10;;;;;;;8.27;7.17;;;19.50;99.90;;;;;;5099238;28;20196;-85
2022/06/29 08:54:41;;;;;;;7.50;6.17;;;19.50;99.90;;;;;;5101329;28;20187;-84
2022/06/29 08:57:08;;;;;;;7.80;6.53;;;19.50;99.90;;;;;;5099870;28;20167;-84
2022/06/29 08:59:37;;;;;;;8.27;6.50;;;19.60;99.90;;;;;;5100309;28;20214;-84
2022/06/29 09:02:04;;;;;;;7.20;6.50;;;19.70;99.90;;;;;;5099963;28;20550;-84
2022/06/29 09:04:30;;;;;;;8.33;5.73;;;19.80;99.90;;;;;;5099795;28;20200;-84
2022/06/29 09:06:56;;;;;;;8.03;6.83;;;20.00;99.90;;;;;;5101250;28;20174;-84
2022/06/29 09:09:23;;;;;;;10.47;5.93;;;20.10;99.90;;;;;;5101342;28;20191;-84
2022/06/29 09:11:53;;;;;;;6.80;5.93;;;20.30;99.90;;;;;;5101055;28;20196;-84
2022/06/29 09:14:24;;;;;;;6.47;5.73;;;20.30;99.90;;;;;;5099059;28;20172;-84
2022/06/29 09:17:03;;;;;;;6.87;6.00;;;20.30;99.90;;;;;;5099640;28;20207;-84
2022/06/29 09:19:42;;;;;;;7.20;5.47;;;20.30;99.90;;;;;;5101448;28;20172;-84
2022/06/29 09:22:08;;;;;;;6.80;5.33;;;20.30;99.90;;;;;;5100075;28;20692;-84
2022/06/29 09:24:34;;;;;;;6.23;5.63;;;20.20;99.90;;;;;;5100438;28;20216;-84
2022/06/29 09:27:02;;;;;;;6.90;5.53;;;20.10;99.90;;;;;;5101076;28;20209;-84
2022/06/29 09:29:33;;;;;;;6.53;5.93;;;20.00;99.90;;;;;;5100105;28;20172;-85
2022/06/29 09:32:02;;;;;;;5.97;5.37;;;20.10;99.90;;;;;;5099928;28;20738;-84
2022/06/29 09:34:31;;;;;;;6.70;5.60;;;20.10;99.90;;;;;;5098751;28;20180;-84
2022/06/29 09:36:59;;;;;;;6.47;5.70;;;20.20;99.90;;;;;;5104247;28;20252;-84
2022/06/29 09:39:38;;;;;;;6.37;5.73;;;20.20;99.90;;;;;;5099370;28;20280;-84
2022/06/29 09:42:16;;;;;;;6.40;5.77;;;20.30;99.90;;;;;;5099728;28;20583;-84
2022/06/29 09:44:43;;;;;;;5.50;5.00;;;20.50;99.90;;;;;;5099933;28;20678;-85
2022/06/29 09:47:19;;;;;;;6.20;5.10;;;20.80;99.90;;;;;;5101849;28;20168;-85
2022/06/29 09:50:01;;;;;;;6.80;5.67;;;21.20;99.90;;;;;;5100182;28;20176;-85
2022/06/29 09:52:27;;;;;;;7.97;6.10;;;21.20;99.90;;;;;;5103872;28;20195;-84
2022/06/29 09:54:55;;;;;;;6.90;5.37;;;21.10;99.90;;;;;;5098757;28;20225;-84
2022/06/29 09:57:30;;;;;;;6.17;5.50;;;21.10;99.90;;;;;;5097655;28;20612;-84
2022/06/29 10:02:55;;;;;;;5.67;5.17;;;21.00;99.90;;;;;;5100576;28;20210;-85
2022/06/29 10:05:54;;;;;;;6.00;5.40;;;20.80;99.90;;;;;;5100208;28;20196;-85
2022/06/29 10:08:14;;;;;;;8.43;5.57;;;20.50;99.90;;;;;;5099308;28;20180;-85
2022/06/29 10:10:44;;;;;;;7.83;5.93;;;20.50;99.90;;;;;;5096592;28;20249;-85
2022/06/29 10:13:42;;;;;;;6.20;4.87;;;20.50;99.90;;;;;;5096656;28;20172;-84
2022/06/29 10:16:35;;;;;;;5.10;4.30;;;20.70;99.90;;;;;;5094263;28;20290;-84
2022/06/29 10:19:33;;;;;;;6.17;4.53;;;20.80;99.90;;;;;;5097319;28;20172;-84
2022/06/29 10:22:01;;;;;;;5.77;4.23;;;20.90;99.90;;;;;;5101505;28;20654;-84
2022/06/29 10:24:27;;;;;;;5.93;3.77;;;21.00;99.90;;;;;;5112866;28;20223;-84
2022/06/29 10:26:53;;;;;;;11.87;4.87;;;21.20;99.90;;;;;;5116474;28;20180;-84
2022/06/29 10:29:19;;;;;;;5.67;3.97;;;21.10;99.90;;;;;;5097723;28;20200;-85
2022/06/29 10:31:54;;;;;;;6.47;4.00;;;21.00;99.90;;;;;;5098873;28;20191;-84
2022/06/29 10:34:32;;;;;;;5.77;3.97;;;21.00;99.90;;;;;;5097719;28;20187;-84
2022/06/29 10:37:08;;;;;;;4.80;4.30;;;21.20;99.90;;;;;;5099365;28;20550;-84
2022/06/29 10:39:49;;;;;;;4.77;4.10;;;21.30;99.90;;;;;;5097196;28;20239;-85
2022/06/29 10:45:25;;;;;;;5.17;3.87;;;21.80;99.90;;;;;;5099847;28;20215;-85
2022/06/29 10:47:54;;;;;;;3.97;3.57;;;21.90;99.90;;;;;;5098529;28;20164;-85
2022/06/29 10:50:22;;;;;;;6.67;3.67;;;22.10;99.90;;;;;;5098949;28;20281;-83
2022/06/29 10:52:49;;;;;;;3.90;3.13;;;22.00;99.90;;;;;;5100398;28;20170;-85
2022/06/29 10:55:16;;;;;;;7.07;2.97;;;22.20;99.90;;;;;;5100687;28;20180;-85
2022/06/29 10:57:43;;;;;;;5.40;3.77;;;22.30;99.90;;;;;;5099700;28;20188;-85
2022/06/29 11:00:17;;;;;;;7.20;4.03;;;22.10;99.90;;;;;;5100779;28;20180;-85
2022/06/29 11:02:44;;;;;;;4.37;3.73;;;22.10;99.90;;;;;;5100342;28;20535;-85
2022/06/29 11:05:12;;;;;;;4.43;3.30;;;22.00;99.90;;;;;;5100282;28;20200;-85
2022/06/29 11:13:24;;;;;;;5.33;3.50;;;21.90;99.90;;;;;;5106816;28;20683;-84
2022/06/29 11:15:53;;;;;;;4.40;3.30;;;22.00;99.90;;;;;;5104563;28;20182;-85
2022/06/29 11:18:21;;;;;;;6.93;3.83;;;22.30;99.90;;;;;;5106310;28;20169;-85
2022/06/29 11:20:50;;;;;;;4.47;3.47;;;22.40;99.90;;;;;;5104599;28;20194;-85
2022/06/29 11:23:27;;;;;;;4.80;3.27;;;22.50;99.90;;;;;;5103991;28;20178;-85
2022/06/29 11:25:56;;;;;;;4.77;3.77;;;;;;;;;;5104450;28;20168;-85
2022/06/29 11:28:33;;;;;;;4.63;3.33;;;22.50;99.90;;;;;;5104247;28;20642;-84
2022/06/29 11:31:02;;;;;;;6.17;3.20;;;22.40;99.90;;;;;;5103951;28;20206;-85
2022/06/29 11:33:31;;;;;;;3.73;3.43;;;22.40;99.90;;;;;;5104714;28;20593;-84
2022/06/29 11:36:02;;;;;;;5.20;3.13;;;22.50;99.90;;;;;;5103421;28;20203;-85
2022/06/29 11:38:28;;;;;;;7.57;3.50;;;22.50;99.90;;;;;;5104096;28;20175;-85
2022/06/29 11:40:56;;;;;;;5.73;3.13;;;22.50;99.90;;;;;;5103871;28;20193;-86
2022/06/29 11:43:22;;;;;;;4.87;3.17;;;22.60;99.90;;;;;;5105148;28;20691;-85
2022/06/29 11:45:54;;;;;;;4.23;3.43;;;22.70;99.90;;;;;;5105392;28;20172;-86
2022/06/29 11:48:24;;;;;;;2.90;2.60;;;22.80;99.90;;;;;;5104155;28;20198;-85
2022/06/29 11:50:54;;;;;;;3.53;2.40;;;23.00;99.90;;;;;;5105312;28;20264;-86
2022/06/29 11:53:39;;;;;;;6.43;3.00;;;22.90;99.90;;;;;;5103774;28;20156;-85
2022/06/29 11:56:23;;;;;;;3.87;2.97;;;22.90;99.90;;;;;;5103682;28;20172;-85
2022/06/29 11:58:56;;;;;;;6.50;3.03;;;22.60;99.90;;;;;;5103275;28;20156;-85
2022/06/29 12:01:26;;;;;;;4.57;3.00;;;22.30;99.90;;;;;;5103568;28;20192;-85
2022/06/29 12:03:54;;;;;;;3.37;2.57;;;22.20;99.90;;;;;;5102734;28;20196;-85
2022/06/29 12:06:23;;;;;;;3.17;2.87;;;22.10;99.90;;;;;;5104100;28;20201;-85
2022/06/29 12:08:53;;;;;;;3.97;2.50;;;21.90;99.90;;;;;;5103408;28;20176;-85
2022/06/29 12:11:20;;;;;;;4.13;2.67;;;21.80;99.90;;;;;;5103623;28;20196;-85
2022/06/29 12:13:46;;;;;;;5.30;3.30;;;21.80;99.90;;;;;;5104240;28;20234;-85
2022/06/29 12:16:12;;;;;;;7.50;3.70;;;21.70;99.90;;;;;;5103981;28;20176;-85
2022/06/29 12:18:38;;;;;;;5.67;3.70;;;21.70;99.90;;;;;;5105974;28;20183;-84
2022/06/29 12:21:04;;;;;;;4.87;3.20;;;21.70;99.90;;;;;;5097416;28;20623;-84
2022/06/29 12:23:31;;;;;;;5.40;3.43;;;21.80;99.90;;;;;;5097754;28;20187;-84
2022/06/29 12:26:00;;;;;;;6.57;3.10;;;21.80;99.90;;;;;;5100487;28;20194;-84
2022/06/29 12:28:26;;;;;;;3.47;2.77;;;22.00;99.90;;;;;;5102852;28;20168;-85
2022/06/29 12:30:52;;;;;;;3.63;2.40;;;22.30;99.90;;;;;;5103925;28;20662;-84
2022/06/29 12:33:19;;;;;;;3.50;2.93;;;22.80;99.90;;;;;;5109225;28;20529;-85
2022/06/29 12:35:45;;;;;;;4.57;2.87;;;23.10;99.90;;;;;;5120558;28;20171;-84
2022/06/29 12:38:11;;;;;;;4.23;2.50;;;23.30;99.90;;;;;;5113097;28;20216;-85
2022/06/29 12:40:38;;;;;;;9.23;2.97;;;23.60;99.90;;;;;;5102488;28;20543;-85
2022/06/29 12:43:04;;;;;;;4.53;2.57;;;23.90;99.90;;;;;;5102345;28;20180;-85
2022/06/29 12:45:31;;;;;;;4.57;2.80;;;24.20;99.90;;;;;;5103925;28;20211;-85
2022/06/29 12:47:56;;;;;;;4.00;2.60;;;24.20;99.90;;;;;;5104157;28;20177;-85
2022/06/29 12:50:23;;;;;;;4.07;2.30;;;24.30;99.90;;;;;;5104508;28;20278;-85
2022/06/29 12:52:50;;;;;;;2.37;2.17;;;24.60;99.90;;;;;;5104052;28;20180;-85
2022/06/29 12:55:18;;;;;;;4.43;2.17;;;25.10;99.90;;;;;;5103988;28;20173;-85
2022/06/29 12:57:44;;;;;;;3.27;2.40;;;25.00;99.90;;;;;;5103224;28;20182;-84
2022/06/29 13:00:11;;;;;;;3.10;2.17;;;25.00;99.90;;;;;;5105617;28;20207;-86
2022/06/29 13:02:38;;;;;;;2.17;1.60;;;24.90;99.90;;;;;;5110303;28;20191;-85
2022/06/29 13:05:04;;;;;;;7.00;2.40;;;24.80;99.90;;;;;;5101846;28;20293;-85
2022/06/29 13:07:30;;;;;;;3.80;2.60;;;24.70;99.90;;;;;;5102546;28;20186;-86
2022/06/29 13:10:00;;;;;;;2.33;1.80;;;24.70;99.90;;;;;;5102420;28;20170;-84
2022/06/29 13:12:26;;;;;;;4.70;2.30;;;24.70;99.90;;;;;;5102341;28;20238;-85
2022/06/29 13:14:57;;;;;;;2.20;2.00;;;25.30;99.90;;;;;;5102897;28;20188;-85
2022/06/29 13:17:23;;;;;;;5.03;2.23;;;25.90;99.90;;;;;;5104352;28;20162;-82
2022/06/29 13:19:49;;;;;;;4.03;2.20;;;26.30;99.90;;;;;;5102446;28;20189;-83
2022/06/29 13:22:16;;;;;;;3.00;2.43;;;26.50;99.90;;;;;;5102851;28;20221;-85
2022/06/29 13:24:42;;;;;;;3.63;2.53;;;26.60;99.90;;;;;;5104143;28;20205;-82
2022/06/29 13:27:09;;;;;;;4.93;2.50;;;26.40;99.90;;;;;;5102651;28;20671;-82
2022/06/29 13:29:35;;;;;;;4.00;2.27;;;26.10;99.90;;;;;;5104492;28;20170;-83
2022/06/29 13:32:01;;;;;;;6.30;2.50;;;26.00;99.90;;;;;;5102850;28;20198;-83
2022/06/29 13:34:28;;;;;;;4.33;2.50;;;26.00;99.90;;;;;;5102236;28;20528;-83
2022/06/29 13:36:54;;;;;;;5.93;2.20;;;25.60;99.90;;;;;;5102825;28;20179;-83
2022/06/29 13:39:21;;;;;;;5.63;2.70;;;25.20;99.90;;;;;;5102260;28;20513;-85
2022/06/29 13:41:46;;;;;;;4.40;2.20;;;24.80;99.90;;;;;;5101178;28;20205;-85
2022/06/29 13:44:13;;;;;;;4.63;2.50;;;24.40;99.90;;;;;;5102883;28;20190;-82
2022/06/29 13:46:40;;;;;;;5.53;2.20;;;24.70;99.90;;;;;;5104929;28;20189;-82
2022/06/29 13:49:05;;;;;;;6.07;2.47;;;25.40;99.90;;;;;;5103340;28;20542;-85
2022/06/29 13:51:31;;;;;;;7.03;2.40;;;26.20;99.90;;;;;;5105467;28;20195;-83
2022/06/29 13:53:57;;;;;;;2.20;1.87;;;;;;;;;;5106521;28;20236;-84
2022/06/29 13:56:23;;;;;;;5.80;2.10;;;;;;;;;;5105312;28;20189;-84
2022/06/29 13:58:49;;;;;;;3.37;1.80;;;27.10;99.90;;;;;;5107913;28;20190;-85
2022/06/29 14:01:15;;;;;;;5.00;2.20;;;27.30;99.90;;;;;;5102923;28;20203;-84
2022/06/29 14:03:41;;;;;;;8.00;1.80;;;;;;;;;;5101211;28;20257;-84
2022/06/29 14:06:07;;;;;;;4.83;2.40;;;27.50;99.90;;;;;;5101577;28;20180;-85
2022/06/29 14:08:33;;;;;;;7.57;2.50;;;27.50;99.90;;;;;;5102736;28;20183;-84
2022/06/29 14:11:00;;;;;;;3.63;2.40;;;27.60;99.90;;;;;;5102604;28;20192;-84
2022/06/29 14:13:26;;;;;;;3.27;2.27;;;27.60;99.90;;;;;;5101837;28;20173;-83
2022/06/29 14:15:52;;;;;;;6.63;2.50;;;27.50;99.90;;;;;;5100548;28;20176;-81
2022/06/29 14:18:18;;;;;;;4.40;2.17;;;27.50;99.90;;;;;;5100502;28;20215;-82
2022/06/29 14:20:44;;;;;;;2.77;2.20;;;27.70;99.90;;;;;;5098138;28;20199;-82
2022/06/29 14:23:09;;;;;;;5.17;2.47;;;27.70;99.90;;;;;;5098470;28;20215;-82
2022/06/29 14:25:35;;;;;;;4.33;2.70;;;27.70;99.90;;;;;;5097511;28;20206;-81
2022/06/29 14:28:01;;;;;;;4.67;2.17;;;27.70;99.90;;;;;;5096647;28;20233;-82
2022/06/29 14:30:27;;;;;;;4.07;2.30;;;27.40;99.90;;;;;;5096786;28;20658;-84
2022/06/29 14:32:53;;;;;;;6.27;2.47;;;26.80;99.90;;;;;;5098811;28;20243;-83
2022/06/29 14:35:19;;;;;;;3.67;2.40;;;26.30;99.90;;;;;;5105642;28;20180;-84
2022/06/29 14:37:45;;;;;;;7.13;2.37;;;26.00;99.90;;;;;;5108958;28;20183;-84
2022/06/29 14:40:11;;;;;;;3.97;2.23;;;26.50;99.90;;;;;;5105219;28;20206;-84
2022/06/29 14:42:37;;;;;;;4.60;2.40;;;26.50;99.90;;;;;;5105891;28;20187;-85
2022/06/29 14:45:04;;;;;;;4.87;2.20;;;26.40;99.90;;;;;;5116250;28;20188;-84
2022/06/29 14:47:30;;;;;;;6.37;2.47;;;26.00;99.90;;;;;;5117511;28;20176;-85
2022/06/29 14:49:56;;;;;;;2.50;2.30;;;25.20;99.90;;;;;;5109028;28;20170;-84
2022/06/29 14:52:22;;;;;;;4.23;2.40;;;24.90;99.90;;;;;;5108407;28;20183;-85
2022/06/29 14:54:48;;;;;;;3.30;2.20;;;24.90;99.90;;;;;;5107164;28;20178;-84
2022/06/29 14:57:14;;;;;;;3.43;2.40;;;24.60;99.90;;;;;;5107974;28;20173;-84
2022/06/29 14:59:40;;;;;;;5.50;2.67;;;;;;;;;;5107380;28;20185;-84
2022/06/29 15:02:08;;;;;;;6.17;2.20;;;24.80;99.90;;;;;;5107442;28;20198;-84
2022/06/29 15:04:34;;;;;;;5.53;2.97;;;25.20;99.90;;;;;;5107018;28;20261;-85
2022/06/29 15:07:02;;;;;;;4.10;2.43;;;25.60;99.90;;;;;;5104997;28;20213;-84
2022/06/29 15:09:30;;;;;;;3.17;2.03;;;26.00;99.90;;;;;;5106056;28;20180;-85
2022/06/29 15:11:56;;;;;;;3.40;2.40;;;;;;;;;;5107038;28;20194;-85
2022/06/29 15:14:22;;;;;;;2.90;2.20;;;26.50;99.90;;;;;;5105036;28;20248;-85
2022/06/29 15:16:48;;;;;;;3.40;2.20;;;26.70;99.90;;;;;;5103546;28;20612;-84
2022/06/29 15:19:14;;;;;;;2.17;1.90;;;;;;;;;;5104515;28;20221;-85
2022/06/29 15:21:40;;;;;;;4.10;2.20;;;26.90;99.90;;;;;;5103636;28;20730;-84
2022/06/29 15:24:07;;;;;;;3.47;2.00;;;26.80;99.90;;;;;;5104349;28;20210;-85
2022/06/29 15:26:32;;;;;;;2.40;2.07;;;26.90;99.90;;;;;;5103065;28;20642;-85
2022/06/29 15:28:58;;;;;;;3.60;2.37;;;;;;;;;;5105609;28;20172;-84
2022/06/29 15:31:32;;;;;;;3.27;2.40;;;27.00;99.90;;;;;;5105523;28;20207;-82
2022/06/29 15:39:27;;;;;;;9.13;2.40;;;;;;;;;;5102056;28;20176;-81
2022/06/29 15:41:53;;;;;;;3.70;2.03;;;26.30;99.90;;;;;;5100712;28;20277;-81
2022/06/29 15:44:19;;;;;;;3.33;2.47;;;26.10;99.90;;;;;;5101883;28;20238;-81
2022/06/29 15:46:44;;;;;;;3.77;2.73;;;25.80;99.90;;;;;;5105419;28;20175;-81
2022/06/29 15:49:10;;;;;;;2.47;2.20;;;25.70;99.90;;;;;;5104014;28;20217;-82
2022/06/29 15:51:36;;;;;;;5.63;2.23;;;25.50;99.90;;;;;;5103814;28;20223;-81
2022/06/29 15:56:46;;;;;;;5.30;2.00;;;;;;;;;;5103567;28;20174;-83
2022/06/29 15:59:12;;;;;;;4.43;2.43;;;25.30;99.90;;;;;;5102727;28;20218;-82
2022/06/29 16:01:39;;;;;;;4.50;2.13;;;25.20;99.90;;;;;;5102980;28;20206;-83
2022/06/29 16:04:06;;;;;;;7.53;2.47;;;25.30;99.90;;;;;;5102287;28;20254;-83
2022/06/29 16:06:32;;;;;;;5.10;2.10;;;25.20;99.90;;;;;;5102738;28;20177;-83
2022/06/29 16:08:57;;;;;;;5.07;2.60;;;25.30;99.90;;;;;;5104296;28;20161;-82
2022/06/29 16:11:23;;;;;;;3.60;2.23;;;25.20;99.90;;;;;;5104532;28;20203;-82
2022/06/29 16:13:49;;;;;;;8.13;2.60;;;;;;;;;;5103200;28;20177;-82
2022/06/29 16:16:15;;;;;;;3.77;2.27;;;;;;;;;;5102472;28;20186;-82
2022/06/29 16:18:41;;;;;;;5.73;2.30;;;;;;;;;;5101479;28;20172;-82
2022/06/29 16:21:07;;;;;;;5.30;2.50;;;;;;;;;;5104433;28;20677;-81
2022/06/29 16:23:34;;;;;;;4.77;2.03;;;25.50;99.90;;;;;;5102787;28;20187;-81
2022/06/29 16:26:00;;;;;;;3.73;2.27;;;25.40;99.90;;;;;;5101806;28;20162;-81
2022/06/29 16:28:25;;;;;;;4.57;2.27;;;25.20;99.90;;;;;;5098855;28;20633;-81
2022/06/29 16:30:51;;;;;;;2.70;2.00;;;25.10;99.90;;;;;;5098274;28;20590;-80
2022/06/29 16:33:17;;;;;;;4.13;2.40;;;24.60;99.90;;;;;;5097756;28;20178;-79
2022/06/29 16:35:43;;;;;;;5.23;2.40;;;24.90;99.90;;;;;;5097570;28;20174;-80
2022/06/29 16:38:10;;;;;;;3.83;2.07;;;24.90;99.90;;;;;;5097624;28;20188;-79
2022/06/29 16:40:38;;;;;;;3.43;2.20;;;24.80;99.90;;;;;;5105494;28;20192;-83
2022/06/29 16:43:04;;;;;;;4.57;2.47;;;24.80;99.90;;;;;;5105911;28;20237;-83
2022/06/29 16:45:30;;;;;;;7.43;2.10;;;24.60;99.90;;;;;;5105799;28;20209;-83
2022/06/29 16:47:56;;;;;;;3.80;2.50;;;;;;;;;;5104359;28;20208;-85
2022/06/29 16:50:22;;;;;;;3.33;2.30;;;;;;;;;;5106507;28;20205;-83
2022/06/29 16:52:48;;;;;;;4.13;2.73;;;;;;;;;;5115988;28;20197;-84
2022/06/29 16:55:14;;;;;;;6.80;2.60;;;;;;;;;;5118365;28;20167;-84
2022/06/29 16:57:40;;;;;;;5.10;2.33;;;;;;;;;;5106435;28;20177;-83
2022/06/29 17:00:07;;;;;;;5.03;2.30;;;23.50;99.90;;;;;;5105891;28;20183;-83
2022/06/29 17:02:33;;;;;;;4.50;2.97;;;;;;;;;;5106399;28;20641;-84
2022/06/29 17:04:59;;;;;;;6.53;2.80;;;;;;;;;;5106508;28;20256;-85
2022/06/29 17:07:25;;;;;;;6.47;2.80;;;23.60;99.90;;;;;;5104783;28;20171;-84
2022/06/29 17:09:50;;;;;;;4.60;2.53;;;23.60;99.90;;;;;;5105610;28;20205;-83
2022/06/29 17:12:16;;;;;;;5.27;2.80;;;;;;;;;;5108211;28;20530;-83
2022/06/29 17:14:42;;;;;;;6.23;2.90;;;;;;;;;;5107451;28;20221;-84
2022/06/29 17:17:09;;;;;;;4.70;2.67;;;;;;;;;;5106389;28;20181;-83
2022/06/29 17:19:36;;;;;;;4.57;3.10;;;;;;;;;;5106299;28;20685;-84
2022/06/29 17:22:02;;;;;;;6.87;2.80;;;;;;;;;;5106724;28;20197;-84
2022/06/29 17:24:28;;;;;;;2.83;2.63;;;;;;;;;;5106846;28;20297;-84
2022/06/29 17:26:54;;;;;;;3.57;2.90;;;;;;;;;;5105851;28;20598;-84
2022/06/29 17:29:21;;;;;;;4.70;2.67;;;23.30;99.90;;;;;;5104859;28;20183;-84
2022/06/29 17:31:48;;;;;;;8.00;2.73;;;;;;;;;;5105393;28;20206;-84
2022/06/29 17:34:15;;;;;;;3.93;3.10;;;23.00;99.90;;;;;;5106477;28;20180;-86
2022/06/29 17:36:41;;;;;;;5.37;3.00;;;;;;;;;;5108630;28;20256;-85
2022/06/29 17:39:07;;;;;;;4.87;3.00;;;22.90;99.90;;;;;;5107823;28;20230;-85
2022/06/29 17:41:35;;;;;;;5.30;2.73;;;;;;;;;;5110476;28;20196;-86
2022/06/29 17:44:02;;;;;;;5.03;2.63;;;22.80;99.90;;;;;;5108866;28;20211;-85
2022/06/29 17:46:28;;;;;;;5.93;2.70;;;;;;;;;;5111184;28;20183;-85
2022/06/29 17:48:55;;;;;;;4.87;2.80;;;;;;;;;;5112524;28;20176;-85
2022/06/29 17:51:21;;;;;;;4.13;2.90;;;;;;;;;;5114485;28;20196;-84
2022/06/29 17:53:47;;;;;;;3.13;2.50;;;;;;;;;;5109879;28;20637;-84
2022/06/29 17:56:13;;;;;;;4.27;2.70;;;;;;;;;;5106284;28;20179;-84
2022/06/29 17:58:39;;;;;;;4.83;2.93;;;22.50;99.90;;;;;;5105458;28;20695;-84
2022/06/29 18:01:06;;;;;;;5.63;2.57;;;;;;;;;;5105692;28;20196;-84
2022/06/29 18:03:32;;;;;;;5.33;2.50;;;;;;;;;;5104647;28;20634;-84
2022/06/29 18:05:58;;;;;;;5.23;2.63;;;;;;;;;;5105388;28;20241;-84
2022/06/29 18:08:24;;;;;;;6.17;2.10;;;22.40;99.90;;;;;;5106707;28;20229;-84
2022/06/29 18:10:49;;;;;;;4.67;2.63;;;22.40;99.90;;;;;;5105953;28;20195;-84
2022/06/29 18:13:15;;;;;;;4.73;2.73;;;;;;;;;;5105292;28;20174;-84
2022/06/29 18:15:41;;;;;;;6.43;2.90;;;22.30;99.90;;;;;;5104937;28;20177;-84
2022/06/29 18:18:07;;;;;;;3.40;3.07;;;;;;;;;;5106422;28;20673;-84
2022/06/29 18:20:33;;;;;;;3.33;2.83;;;22.20;99.90;;;;;;5105543;28;20196;-84
2022/06/29 18:22:59;;;;;;;3.60;3.30;;;;;;;;;;5105306;28;20271;-84
2022/06/29 18:25:26;;;;;;;4.23;2.77;;;;;;;;;;5105277;28;20224;-84
2022/06/29 18:27:52;;;;;;;3.30;2.67;;;;;;;;;;5105309;28;20244;-85
2022/06/29 18:30:18;;;;;;;5.73;3.53;;;;;;;;;;5104112;28;20558;-84
2022/06/29 18:32:44;;;;;;;4.07;3.40;;;21.90;99.90;;;;;;5103052;28;20177;-84
2022/06/29 18:35:10;;;;;;;7.60;5.37;;;;;;;;;;5102138;28;20264;-85
2022/06/29 18:37:36;;;;;;;9.40;6.40;;;21.60;99.90;;;;;;5100075;28;20198;-84
2022/06/29 18:40:01;;;;;;;8.70;7.80;;;21.70;99.90;;;;;;5098114;28;20197;-84
2022/06/29 18:42:28;;;;;;;9.27;7.40;;;;;;;;;;5094768;28;20191;-84
2022/06/29 18:44:54;;;;;;;6.07;5.30;;;21.70;99.90;;;;;;5095757;28;20296;-84
2022/06/29 18:47:20;;;;;;;7.87;5.13;;;;;;;;;;5100994;28;20217;-84
2022/06/29 18:49:46;;;;;;;7.00;4.83;;;;;;;;;;5101346;28;20189;-84
2022/06/29 18:52:12;;;;;;;4.37;3.90;;;21.40;99.90;;;;;;5100940;28;20229;-84
2022/06/29 18:54:39;;;;;;;6.80;4.63;;;;;;;;;;5099714;28;20224;-84
2022/06/29 18:57:05;;;;;;;6.70;4.10;;;21.30;99.90;;;;;;5103368;28;20186;-81
2022/06/29 18:59:31;;;;;;;5.43;4.23;;;21.20;99.90;;;;;;5107213;28;20237;-82
2022/06/29 19:01:56;;;;;;;5.67;4.17;;;21.10;99.90;;;;;;5112543;28;20265;-82
2022/06/29 19:04:23;;;;;;;4.27;3.53;;;;;;;;;;5103125;28;20280;-82
2022/06/29 19:06:48;;;;;;;8.17;4.07;;;21.00;99.90;;;;;;5100153;28;20232;-81
2022/06/29 19:09:17;;;;;;;4.67;3.37;;;21.00;99.90;;;;;;5099678;28;20174;-81
2022/06/29 19:11:54;;;;;;;4.80;3.63;;;20.90;99.90;;;;;;5099453;28;20195;-82
2022/06/29 19:14:24;;;;;;;7.27;4.10;;;20.80;99.90;;;;;;5099837;28;20227;-82
2022/06/29 19:16:50;;;;;;;5.47;4.40;;;20.80;99.90;;;;;;5101889;28;20157;-82
2022/06/29 19:19:16;;;;;;;5.50;4.03;;;20.70;99.90;;;;;;5099782;28;20243;-82
2022/06/29 19:21:43;;;;;;;5.97;4.00;;;;;;;;;;5102055;28;20189;-82
2022/06/29 19:24:09;;;;;;;5.33;4.10;;;20.40;99.90;;;;;;5106058;28;20735;-81
2022/06/29 19:26:35;;;;;;;5.23;4.70;;;20.60;99.90;;;;;;5108561;28;20253;-81
2022/06/29 19:29:01;;;;;;;5.47;4.90;;;20.50;99.90;;;;;;5105705;28;20662;-83
2022/06/29 19:31:28;;;;;;;6.67;5.13;;;;;;;;;;5100889;28;20280;-83
2022/06/29 19:33:54;;;;;;;5.17;4.53;;;20.50;99.90;;;;;;5101885;28;20261;-83
2022/06/29 19:36:21;;;;;;;6.70;4.90;;;20.40;99.90;;;;;;5099432;28;20676;-83
2022/06/29 19:38:47;;;;;;;5.23;4.73;;;20.30;99.90;;;;;;5100842;28;20173;-83
2022/06/29 19:41:13;;;;;;;6.50;5.30;;;20.20;99.90;;;;;;5100988;28;20690;-82
2022/06/29 19:43:38;;;;;;;10.43;5.17;;;20.20;99.90;;;;;;5102022;28;20258;-82
2022/06/29 19:46:04;;;;;;;6.13;4.50;;;20.10;99.90;;;;;;5100031;28;20250;-82
2022/06/29 19:48:30;;;;;;;5.93;4.87;;;20.10;99.90;;;;;;5099433;28;20263;-83
2022/06/29 19:50:56;;;;;;;5.07;4.30;;;20.00;99.90;;;;;;5100821;28;20252;-83